createdAt,value
2023-02-22T00:02:28.624Z,27.99
2023-02-22T00:04:59.361Z,28.02
2023-02-22T00:07:29.493Z,28.02
2023-02-22T00:10:02.339Z,28.04
2023-02-22T00:12:32.558Z,28.06
2023-02-22T00:15:02.569Z,28.07
2023-02-22T00:17:34.209Z,28.13
2023-02-22T00:20:07.467Z,28.13
2023-02-22T00:22:37.707Z,28.18
2023-02-22T00:25:07.905Z,28.19
2023-02-22T00:27:38.607Z,28.20
2023-02-22T00:30:09.051Z,28.22
2023-02-22T00:32:39.308Z,28.23
2023-02-22T00:35:10.211Z,28.22
2023-02-22T00:37:43.259Z,28.22
2023-02-22T00:40:14.141Z,28.24
2023-02-22T00:42:45.610Z,28.28
2023-02-22T00:45:18.643Z,28.27
2023-02-22T00:47:49.283Z,28.30
2023-02-22T00:50:20.393Z,28.28
2023-02-22T00:52:51.181Z,28.27
2023-02-22T00:55:32.469Z,28.27
2023-02-22T00:58:03.478Z,28.29
2023-02-22T01:00:38.912Z,28.28
2023-02-22T01:03:12.556Z,28.29
2023-02-22T01:05:42.902Z,28.29
2023-02-22T01:08:14.138Z,28.29
2023-02-22T01:10:44.733Z,28.29
2023-02-22T01:13:14.997Z,28.30
2023-02-22T01:15:46.318Z,28.31
2023-02-22T01:18:21.261Z,28.31
2023-02-22T01:20:51.593Z,28.32
2023-02-22T01:23:22.730Z,28.33
2023-02-22T01:25:53.254Z,28.34
2023-02-22T01:28:23.966Z,28.34
2023-02-22T01:30:54.528Z,28.35
2023-02-22T01:33:27.323Z,28.37
2023-02-22T01:35:57.860Z,28.39
2023-02-22T01:38:28.202Z,28.39
2023-02-22T01:40:58.400Z,28.40
2023-02-22T01:43:31.037Z,28.42
2023-02-22T01:46:09.716Z,28.43
2023-02-22T01:48:42.744Z,28.45
2023-02-22T01:51:16.360Z,28.46
2023-02-22T01:54:00.209Z,28.47
2023-02-22T01:56:33.170Z,28.49
2023-02-22T01:59:05.176Z,28.50
2023-02-22T02:01:37.956Z,28.52
2023-02-22T02:04:11.719Z,28.10
2023-02-22T02:06:43.805Z,28.56
2023-02-22T02:09:18.505Z,28.57
2023-02-22T02:11:49.157Z,28.59
2023-02-22T02:14:19.506Z,28.61
2023-02-22T02:16:51.871Z,28.63
2023-02-22T02:19:46.559Z,28.65
2023-02-22T02:22:41.234Z,28.67
2023-02-22T02:25:23.692Z,28.69
2023-02-22T02:27:59.527Z,28.70
2023-02-22T02:30:48.442Z,28.73
2023-02-22T02:33:23.016Z,28.75
2023-02-22T02:36:00.103Z,28.78
2023-02-22T02:38:41.607Z,28.81
2023-02-22T02:41:24.158Z,28.82
2023-02-22T02:44:10.877Z,28.85
2023-02-22T02:47:06.181Z,28.87
2023-02-22T02:49:40.209Z,28.91
2023-02-22T02:52:11.466Z,28.91
2023-02-22T02:54:42.349Z,28.94
2023-02-22T02:57:12.522Z,28.98
2023-02-22T02:59:43.335Z,29.00
2023-02-22T03:02:22.235Z,29.03
2023-02-22T03:04:58.376Z,29.04
2023-02-22T03:07:44.176Z,29.08
2023-02-22T03:10:14.630Z,29.10
2023-02-22T03:13:00.213Z,29.13
2023-02-22T03:15:37.711Z,29.15
2023-02-22T03:18:10.602Z,29.18
2023-02-22T03:20:46.959Z,29.21
2023-02-22T03:23:26.256Z,29.23
2023-02-22T03:26:06.536Z,29.28
2023-02-22T03:28:42.528Z,29.30
2023-02-22T03:31:16.390Z,29.33
2023-02-22T03:34:13.565Z,29.35
2023-02-22T03:36:50.205Z,29.38
2023-02-22T03:39:21.784Z,29.42
2023-02-22T03:41:55.223Z,29.44
2023-02-22T03:44:29.149Z,29.47
2023-02-22T03:47:03.603Z,29.49
2023-02-22T03:49:34.338Z,29.52
2023-02-22T03:52:05.910Z,29.55
2023-02-22T03:54:36.880Z,29.58
2023-02-22T03:57:12.597Z,29.61
2023-02-22T03:59:45.883Z,29.64
2023-02-22T04:02:20.404Z,29.66
2023-02-22T04:04:50.510Z,29.69
2023-02-22T04:07:21.191Z,29.72
2023-02-22T04:09:52.515Z,29.75
2023-02-22T04:12:22.624Z,29.77
2023-02-22T04:15:01.609Z,29.80
2023-02-22T04:17:31.916Z,29.82
2023-02-22T04:20:03.322Z,29.87
2023-02-22T04:22:43.837Z,29.91
2023-02-22T04:25:14.422Z,29.95
2023-02-22T04:27:44.707Z,29.96
2023-02-22T04:30:19.535Z,29.98
2023-02-22T04:32:50.933Z,30.02
2023-02-22T04:35:24.693Z,30.05
2023-02-22T04:37:55.428Z,30.07
2023-02-22T04:40:25.900Z,30.10
2023-02-22T04:42:55.920Z,30.13
2023-02-22T04:45:26.016Z,30.17
2023-02-22T04:47:56.090Z,30.20
2023-02-22T04:50:26.421Z,30.22
2023-02-22T04:52:57.809Z,30.24
2023-02-22T04:55:29.631Z,30.27
2023-02-22T04:58:01.199Z,30.31
2023-02-22T05:00:31.250Z,30.33
2023-02-22T05:03:05.013Z,30.36
2023-02-22T05:05:35.480Z,30.39
2023-02-22T05:08:05.694Z,30.41
2023-02-22T05:10:35.904Z,30.42
2023-02-22T05:13:07.514Z,30.45
2023-02-22T05:15:37.669Z,30.45
2023-02-22T05:18:08.377Z,30.46
2023-02-22T05:20:38.685Z,30.48
2023-02-22T05:23:08.843Z,30.48
2023-02-22T05:25:38.931Z,30.49
2023-02-22T05:28:16.085Z,30.49
2023-02-22T05:30:46.724Z,30.53
2023-02-22T05:33:16.772Z,30.54
2023-02-22T05:35:47.974Z,30.58
2023-02-22T05:38:18.617Z,30.58
2023-02-22T05:40:48.734Z,30.60
2023-02-22T05:43:19.925Z,30.63
2023-02-22T05:45:50.859Z,30.65
2023-02-22T05:48:22.553Z,30.67
2023-02-22T05:50:53.796Z,30.47
2023-02-22T05:53:25.372Z,30.71
2023-02-22T05:55:57.881Z,30.72
2023-02-22T05:58:28.370Z,30.57
2023-02-22T09:27:24.095Z,31.78
2023-02-22T09:29:54.840Z,31.79
2023-02-22T09:32:30.849Z,31.80
2023-02-22T09:35:01.059Z,31.80
2023-02-22T09:37:31.482Z,31.80
2023-02-22T09:40:01.757Z,31.82
2023-02-22T09:42:43.466Z,31.81
2023-02-22T09:45:18.649Z,31.61
2023-02-22T09:47:56.923Z,31.82
2023-02-22T09:50:31.015Z,31.84
2023-02-22T09:53:07.229Z,31.82
2023-02-22T09:55:46.907Z,31.84
2023-02-22T09:58:23.288Z,31.82
2023-02-22T10:01:01.536Z,31.84
2023-02-22T10:03:36.642Z,31.83
2023-02-22T10:06:14.548Z,31.82
2023-02-22T10:08:48.842Z,31.82
2023-02-22T10:11:18.779Z,31.80
2023-02-22T10:14:00.195Z,31.81
2023-02-22T10:17:14.079Z,31.78
2023-02-22T10:19:46.891Z,31.79
2023-02-22T10:22:16.986Z,31.78
2023-02-22T10:24:47.608Z,31.75
2023-02-22T10:27:21.124Z,31.58
2023-02-22T10:29:55.676Z,31.43
2023-02-22T10:32:33.760Z,31.33
2023-02-22T10:35:07.457Z,31.27
2023-02-22T10:37:38.194Z,31.22
2023-02-22T10:40:14.539Z,31.15
2023-02-22T10:42:45.052Z,31.12
2023-02-22T10:45:28.199Z,31.12
2023-02-22T10:48:00.761Z,31.11
2023-02-22T10:50:34.295Z,31.07
2023-02-22T10:53:05.670Z,31.22
2023-02-22T10:55:36.019Z,31.27
2023-02-22T10:58:10.200Z,31.24
2023-02-22T11:00:41.559Z,31.21
2023-02-22T11:03:22.777Z,31.21
2023-02-22T11:05:54.010Z,31.19
2023-02-22T11:08:24.054Z,31.16
2023-02-22T11:10:56.949Z,31.20
2023-02-22T11:13:35.519Z,31.13
2023-02-22T11:16:23.147Z,31.14
2023-02-22T11:19:02.432Z,31.25
2023-02-22T11:21:34.477Z,31.31
2023-02-22T11:24:06.877Z,31.36
2023-02-22T11:26:47.950Z,31.38
2023-02-22T11:29:28.854Z,31.39
2023-02-22T11:31:58.923Z,31.42
2023-02-22T11:34:33.039Z,31.41
2023-02-22T11:37:23.735Z,31.42
2023-02-22T11:40:08.854Z,31.42
2023-02-22T11:42:39.300Z,31.40
2023-02-22T11:45:14.901Z,31.39
2023-02-22T11:48:04.440Z,31.38
2023-02-22T11:50:52.699Z,31.36
2023-02-22T11:53:41.351Z,31.35
2023-02-22T11:56:37.198Z,31.32
2023-02-22T11:59:27.183Z,31.30
2023-02-22T12:02:06.192Z,31.28
2023-02-22T12:04:52.041Z,31.28
2023-02-22T12:07:35.309Z,31.26
2023-02-22T12:10:17.728Z,31.26
2023-02-22T12:13:06.884Z,31.24
2023-02-22T12:15:58.101Z,31.23
2023-02-22T12:18:35.444Z,31.21
2023-02-22T12:21:18.760Z,31.20
2023-02-22T12:24:07.195Z,31.19
2023-02-22T12:26:42.878Z,31.17
2023-02-22T12:29:27.981Z,31.17
2023-02-22T12:32:09.026Z,31.18
2023-02-22T12:34:45.042Z,31.15
2023-02-22T12:37:20.170Z,31.00
2023-02-22T12:40:15.306Z,30.91
2023-02-22T12:42:45.714Z,30.84
2023-02-22T12:45:22.385Z,30.77
2023-02-22T12:47:57.446Z,30.73
2023-02-22T12:50:31.026Z,30.72
2023-02-22T12:53:17.685Z,30.72
2023-02-22T12:55:56.266Z,30.71
2023-02-22T12:58:35.780Z,30.70
2023-02-22T13:01:08.567Z,30.70
2023-02-22T13:03:39.027Z,30.69
2023-02-22T13:06:27.820Z,30.69
2023-02-22T13:09:01.539Z,30.70
2023-02-22T13:11:50.530Z,30.71
2023-02-22T13:14:41.121Z,30.71
2023-02-22T13:17:30.166Z,30.69
2023-02-22T13:20:25.538Z,30.68
2023-02-22T13:23:14.402Z,30.68
2023-02-22T13:25:47.829Z,30.66
2023-02-22T13:28:33.915Z,30.66
2023-02-22T13:31:19.910Z,30.67
2023-02-22T13:34:15.823Z,30.68
2023-02-22T13:37:06.284Z,30.66
2023-02-22T13:39:56.364Z,30.66
2023-02-22T13:42:35.787Z,30.65
2023-02-22T13:45:24.614Z,30.63
2023-02-22T13:47:55.477Z,30.62
2023-02-22T13:50:44.606Z,30.62
2023-02-22T13:53:18.075Z,30.62
2023-02-22T13:55:54.050Z,30.60
2023-02-22T13:58:25.635Z,30.59
2023-02-22T14:00:58.317Z,30.60
2023-02-22T14:03:36.577Z,30.57
2023-02-22T14:06:28.424Z,30.58
2023-02-22T14:08:59.420Z,30.43
2023-02-22T14:11:35.598Z,30.20
2023-02-22T14:14:09.542Z,29.99
2023-02-22T14:16:40.401Z,29.82
2023-02-22T14:19:14.996Z,29.45
2023-02-22T14:22:03.484Z,29.51
2023-02-22T14:24:47.693Z,29.37
2023-02-22T14:27:21.556Z,29.24
2023-02-22T14:29:57.881Z,29.13
2023-02-22T14:32:37.265Z,29.01
2023-02-22T14:35:26.586Z,28.92
2023-02-22T14:38:02.788Z,28.82
2023-02-22T14:40:34.439Z,28.77
2023-02-22T14:43:07.732Z,28.67
2023-02-22T14:45:58.338Z,28.59
2023-02-22T14:48:40.814Z,28.52
2023-02-22T14:51:26.916Z,28.46
2023-02-22T14:54:00.150Z,28.41
2023-02-22T14:56:43.078Z,28.32
2023-02-22T14:59:21.640Z,28.27
2023-02-22T15:02:05.938Z,28.23
2023-02-22T15:04:45.427Z,28.20
2023-02-22T15:07:28.848Z,28.13
2023-02-22T15:10:19.100Z,28.10
2023-02-22T15:12:58.000Z,28.06
2023-02-22T15:15:29.520Z,28.02
2023-02-22T15:18:00.638Z,27.99
2023-02-22T15:20:31.814Z,27.97
2023-02-22T15:23:02.976Z,28.09
2023-02-22T15:25:33.336Z,28.15
2023-02-22T15:28:05.302Z,28.17
2023-02-22T15:30:36.870Z,28.18
2023-02-22T15:33:18.543Z,28.19
2023-02-22T15:35:57.174Z,28.19
2023-02-22T15:38:32.343Z,28.18
2023-02-22T15:41:04.060Z,28.20
2023-02-22T15:43:34.362Z,28.18
2023-02-22T15:46:04.986Z,28.02
2023-02-22T15:48:37.542Z,27.95
2023-02-22T15:51:08.845Z,27.90
2023-02-22T15:53:43.990Z,27.84
2023-02-22T15:56:19.146Z,27.81
2023-02-22T15:58:49.746Z,27.81
2023-02-22T16:01:21.016Z,27.78
2023-02-22T16:03:53.779Z,27.75
2023-02-22T16:06:24.229Z,27.80
2023-02-22T16:08:55.877Z,27.87
2023-02-22T16:11:33.157Z,27.91
2023-02-22T16:14:08.028Z,27.93
2023-02-22T16:16:45.396Z,27.93
2023-02-22T16:19:37.601Z,27.96
2023-02-22T16:22:14.921Z,27.93
2023-02-22T16:24:46.391Z,27.91
2023-02-22T16:27:17.286Z,27.88
2023-02-22T16:30:07.773Z,27.90
2023-02-22T16:32:40.137Z,27.87
2023-02-22T16:35:19.490Z,27.84
2023-02-22T16:37:53.059Z,27.84
2023-02-22T16:40:27.902Z,27.81
2023-02-22T16:42:58.230Z,27.79
2023-02-22T16:45:28.492Z,27.76
2023-02-22T16:48:00.833Z,27.75
2023-02-22T16:50:31.322Z,27.73
2023-02-22T16:53:02.867Z,27.73
2023-02-22T16:55:33.587Z,27.71
2023-02-22T16:58:04.481Z,27.69
2023-02-22T17:00:36.389Z,27.69
2023-02-22T17:03:07.062Z,27.69
2023-02-22T17:05:39.970Z,27.67
2023-02-22T17:08:10.410Z,27.66
2023-02-22T17:10:41.132Z,27.65
2023-02-22T17:13:22.789Z,27.66
2023-02-22T17:15:56.406Z,27.62
2023-02-22T17:18:29.932Z,27.61
2023-02-22T17:21:00.250Z,27.60
2023-02-22T17:23:30.948Z,27.60
2023-02-22T17:26:05.179Z,27.54
2023-02-22T17:28:36.940Z,27.55
2023-02-22T17:31:07.081Z,27.52
2023-02-22T17:33:39.076Z,27.52
2023-02-22T17:36:09.822Z,27.49
2023-02-22T17:38:43.048Z,27.46
2023-02-22T17:41:13.013Z,27.45
2023-02-22T17:43:43.682Z,27.46
2023-02-22T17:46:14.039Z,27.43
2023-02-22T17:48:43.937Z,27.40
2023-02-22T17:51:14.132Z,27.39
2023-02-22T17:53:44.205Z,27.38
2023-02-22T17:56:15.326Z,27.38
2023-02-22T17:58:57.365Z,27.37
2023-02-22T18:01:29.700Z,27.35
2023-02-22T18:04:01.155Z,27.34
2023-02-22T18:06:34.118Z,27.35
2023-02-22T18:09:11.565Z,27.36
2023-02-22T18:11:41.573Z,27.33
2023-02-22T18:14:13.835Z,27.31
2023-02-22T18:16:44.448Z,27.31
2023-02-22T18:19:14.338Z,27.31
2023-02-22T18:21:44.786Z,27.30
2023-02-22T18:24:15.042Z,27.29
2023-02-22T18:26:45.427Z,27.29
2023-02-22T18:29:15.918Z,27.28
2023-02-22T18:31:46.946Z,27.31
2023-02-22T18:34:17.905Z,27.30
2023-02-22T18:36:48.234Z,27.27
2023-02-22T18:39:18.597Z,27.22
2023-02-22T18:41:50.516Z,27.24
2023-02-22T18:44:20.728Z,27.22
2023-02-22T18:46:50.719Z,27.24
2023-02-22T18:49:20.702Z,27.23
2023-02-22T18:51:50.942Z,27.18
2023-02-22T18:54:21.608Z,27.23
2023-02-22T18:56:51.972Z,27.21
2023-02-22T18:59:22.017Z,27.22
2023-02-22T19:01:53.213Z,27.21
2023-02-22T19:04:23.726Z,27.21
2023-02-22T19:06:56.401Z,27.18
2023-02-22T19:09:27.056Z,27.18
2023-02-22T19:11:56.956Z,27.19
2023-02-22T19:14:26.842Z,27.18
2023-02-22T19:17:01.033Z,27.16
2023-02-22T19:19:33.296Z,27.15
2023-02-22T19:22:03.580Z,27.15
2023-02-22T19:24:33.940Z,27.14
2023-02-22T19:27:04.369Z,27.13
2023-02-22T19:29:34.791Z,27.12
2023-02-22T19:32:05.136Z,27.12
2023-02-22T19:34:36.048Z,27.10
2023-02-22T19:37:07.544Z,27.13
2023-02-22T19:39:39.921Z,27.09
2023-02-22T19:42:11.509Z,27.09
2023-02-22T19:44:41.681Z,27.09
2023-02-22T19:47:12.280Z,27.06
2023-02-22T19:49:43.346Z,27.08
2023-02-22T19:52:13.868Z,27.07
2023-02-22T19:54:44.152Z,27.05
2023-02-22T19:57:15.201Z,27.04
2023-02-22T19:59:45.597Z,27.05
2023-02-22T20:02:15.751Z,27.05
2023-02-22T20:04:45.768Z,27.04
2023-02-22T20:07:16.007Z,27.02
2023-02-22T20:09:46.361Z,27.02
2023-02-22T20:12:16.470Z,27.01
2023-02-22T20:14:47.820Z,27.02
2023-02-22T20:17:18.088Z,26.99
2023-02-22T20:19:50.309Z,26.99
2023-02-22T20:22:20.236Z,26.96
2023-02-22T20:24:51.435Z,26.96
2023-02-22T20:27:22.148Z,26.97
2023-02-22T20:29:52.181Z,26.96
2023-02-22T20:32:26.971Z,27.01
2023-02-22T20:34:57.208Z,27.08
2023-02-22T20:37:27.282Z,27.15
2023-02-22T20:39:57.225Z,27.23
2023-02-22T20:42:27.908Z,27.28
2023-02-22T20:45:03.453Z,27.23
2023-02-22T20:47:33.838Z,27.20
2023-02-22T20:50:04.109Z,27.15
2023-02-22T20:52:34.394Z,27.13
2023-02-22T20:55:06.052Z,27.14
2023-02-22T20:57:36.392Z,27.10
2023-02-22T21:00:12.400Z,27.09
2023-02-22T21:02:42.399Z,27.07
2023-02-22T21:05:12.283Z,27.04
2023-02-22T21:07:42.656Z,27.02
2023-02-22T21:10:13.088Z,26.98
2023-02-22T21:12:44.648Z,26.98
2023-02-22T21:15:16.239Z,26.96
2023-02-22T21:17:49.325Z,27.03
2023-02-22T21:20:23.651Z,27.08
2023-02-22T21:22:54.183Z,27.14
2023-02-22T21:25:24.581Z,27.20
2023-02-22T21:27:55.054Z,27.26
2023-02-22T21:30:25.548Z,27.26
2023-02-22T21:32:56.858Z,27.21
2023-02-22T21:35:27.324Z,27.16
2023-02-22T21:37:57.735Z,27.13
2023-02-22T21:40:29.294Z,27.09
2023-02-22T21:42:59.730Z,27.05
2023-02-22T21:45:30.788Z,27.02
2023-02-22T21:48:01.233Z,27.00
2023-02-22T21:50:32.393Z,26.98
2023-02-22T21:53:03.222Z,26.98
2023-02-22T21:55:33.584Z,27.04
2023-02-22T21:58:04.138Z,27.10
2023-02-22T22:00:44.399Z,27.14
2023-02-22T22:03:21.886Z,27.19
2023-02-22T22:05:51.873Z,27.25
2023-02-22T22:08:22.114Z,27.29
2023-02-22T22:10:56.733Z,27.27
2023-02-22T22:13:27.188Z,27.21
2023-02-22T22:15:57.602Z,27.15
2023-02-22T22:18:28.134Z,26.73
2023-02-22T22:20:58.412Z,27.05
2023-02-22T22:23:28.697Z,27.02
2023-02-22T22:26:12.560Z,27.00
2023-02-22T22:28:43.949Z,27.04
2023-02-22T22:31:14.597Z,27.09
2023-02-22T22:33:45.712Z,27.13
2023-02-22T22:36:17.319Z,27.18
2023-02-22T22:38:49.895Z,27.22
2023-02-22T22:41:21.166Z,27.23
2023-02-22T22:43:54.344Z,27.17
2023-02-22T22:46:25.066Z,27.13
2023-02-22T22:48:55.363Z,27.09
2023-02-22T22:51:25.518Z,27.03
2023-02-22T22:53:56.332Z,26.99
2023-02-22T22:56:30.850Z,27.01
2023-02-22T22:59:01.125Z,27.04
2023-02-22T23:01:35.975Z,27.03
2023-02-22T23:04:06.959Z,26.82
2023-02-22T23:06:41.617Z,27.09
2023-02-22T23:09:25.789Z,27.13
2023-02-22T23:11:59.932Z,27.00
2023-02-22T23:14:34.338Z,27.27
2023-02-22T23:17:05.401Z,27.32
2023-02-22T23:19:37.014Z,27.35
2023-02-22T23:22:08.769Z,27.38
2023-02-22T23:24:39.230Z,27.43
2023-02-22T23:27:12.617Z,27.46
2023-02-22T23:29:47.944Z,27.50
2023-02-22T23:32:18.819Z,27.52
2023-02-22T23:34:51.455Z,27.57
2023-02-22T23:37:22.214Z,27.63
2023-02-22T23:39:52.449Z,27.67
2023-02-22T23:42:24.891Z,27.75
2023-02-22T23:44:55.230Z,27.84
2023-02-22T23:47:25.274Z,27.88
2023-02-22T23:49:56.446Z,27.93
2023-02-22T23:52:31.702Z,27.98
2023-02-22T23:55:03.559Z,28.03
2023-02-22T23:57:34.585Z,28.06
